sensor_id;sensor_type;location;lat;lon;timestamp;temperature;humidity
5041;DHT22;2539;52.568;13.364;2022-09-03T00:02:12;13.30;99.90
5041;DHT22;2539;52.568;13.364;2022-09-03T00:04:48;13.20;99.90
5041;DHT22;2539;52.568;13.364;2022-09-03T00:07:27;13.20;99.90
5041;DHT22;2539;52.568;13.364;2022-09-03T00:09:59;13.20;99.90
5041;DHT22;2539;52.568;13.364;2022-09-03T00:12:35;13.20;99.90
5041;DHT22;2539;52.568;13.364;2022-09-03T00:17:43;13.20;99.90
5041;DHT22;2539;52.568;13.364;2022-09-03T00:20:38;13.20;99.90
5041;DHT22;2539;52.568;13.364;2022-09-03T00:23:06;13.20;99.90
5041;DHT22;2539;52.568;13.364;2022-09-03T00:25:42;13.20;99.90
5041;DHT22;2539;52.568;13.364;2022-09-03T00:28:22;13.30;99.90
5041;DHT22;2539;52.568;13.364;2022-09-03T00:31:02;13.20;99.90
5041;DHT22;2539;52.568;13.364;2022-09-03T00:33:32;13.20;99.90
5041;DHT22;2539;52.568;13.364;2022-09-03T00:36:15;13.20;99.90
5041;DHT22;2539;52.568;13.364;2022-09-03T00:38:43;13.20;99.90
5041;DHT22;2539;52.568;13.364;2022-09-03T00:43:57;13.20;99.90
5041;DHT22;2539;52.568;13.364;2022-09-03T00:46:41;13.20;99.90
5041;DHT22;2539;52.568;13.364;2022-09-03T00:55:06;13.20;99.90
5041;DHT22;2539;52.568;13.364;2022-09-03T00:58:43;13.10;99.90
5041;DHT22;2539;52.568;13.364;2022-09-03T01:00:41;13.20;99.90
5041;DHT22;2539;52.568;13.364;2022-09-03T01:06:17;13.10;99.90
5041;DHT22;2539;52.568;13.364;2022-09-03T01:11:59;13.10;99.90
5041;DHT22;2539;52.568;13.364;2022-09-03T01:14:42;13.10;99.90
5041;DHT22;2539;52.568;13.364;2022-09-03T01:17:20;13.10;99.90
5041;DHT22;2539;52.568;13.364;2022-09-03T01:20:00;13.10;99.90
5041;DHT22;2539;52.568;13.364;2022-09-03T01:22:58;13.10;99.90
5041;DHT22;2539;52.568;13.364;2022-09-03T01:28:16;13.00;99.90
5041;DHT22;2539;52.568;13.364;2022-09-03T01:31:05;13.00;99.90
5041;DHT22;2539;52.568;13.364;2022-09-03T01:33:43;13.00;99.90
5041;DHT22;2539;52.568;13.364;2022-09-03T01:36:36;12.90;99.90
5041;DHT22;2539;52.568;13.364;2022-09-03T01:39:09;12.90;99.90
5041;DHT22;2539;52.568;13.364;2022-09-03T01:42:08;12.90;99.90
5041;DHT22;2539;52.568;13.364;2022-09-03T01:45:14;12.90;99.90
5041;DHT22;2539;52.568;13.364;2022-09-03T01:51:02;12.80;99.90
5041;DHT22;2539;52.568;13.364;2022-09-03T01:53:51;12.80;99.90
5041;DHT22;2539;52.568;13.364;2022-09-03T01:59:58;12.70;99.90
5041;DHT22;2539;52.568;13.364;2022-09-03T02:02:27;12.60;99.90
5041;DHT22;2539;52.568;13.364;2022-09-03T02:05:18;12.60;99.90
5041;DHT22;2539;52.568;13.364;2022-09-03T02:07:48;12.60;99.90
5041;DHT22;2539;52.568;13.364;2022-09-03T02:10:17;12.50;99.90
5041;DHT22;2539;52.568;13.364;2022-09-03T02:12:50;12.40;99.90
5041;DHT22;2539;52.568;13.364;2022-09-03T02:15:20;12.40;99.90
5041;DHT22;2539;52.568;13.364;2022-09-03T02:17:48;12.40;99.90
5041;DHT22;2539;52.568;13.364;2022-09-03T02:20:19;12.40;99.90
5041;DHT22;2539;52.568;13.364;2022-09-03T02:22:48;12.30;99.90
5041;DHT22;2539;52.568;13.364;2022-09-03T02:25:16;12.30;99.90
5041;DHT22;2539;52.568;13.364;2022-09-03T02:27:43;12.30;99.90
5041;DHT22;2539;52.568;13.364;2022-09-03T02:30:10;12.30;99.90
5041;DHT22;2539;52.568;13.364;2022-09-03T02:32:37;12.30;99.90
5041;DHT22;2539;52.568;13.364;2022-09-03T02:35:03;12.30;99.90
5041;DHT22;2539;52.568;13.364;2022-09-03T02:37:30;12.30;99.90
5041;DHT22;2539;52.568;13.364;2022-09-03T02:39:56;12.30;99.90
5041;DHT22;2539;52.568;13.364;2022-09-03T02:42:22;12.30;99.90
5041;DHT22;2539;52.568;13.364;2022-09-03T02:44:56;12.20;99.90
5041;DHT22;2539;52.568;13.364;2022-09-03T02:47:30;12.10;99.90
5041;DHT22;2539;52.568;13.364;2022-09-03T02:49:58;12.10;99.90
5041;DHT22;2539;52.568;13.364;2022-09-03T02:52:24;12.10;99.90
5041;DHT22;2539;52.568;13.364;2022-09-03T02:54:50;12.10;99.90
5041;DHT22;2539;52.568;13.364;2022-09-03T02:57:17;12.00;99.90
5041;DHT22;2539;52.568;13.364;2022-09-03T02:59:43;12.00;99.90
5041;DHT22;2539;52.568;13.364;2022-09-03T03:02:12;12.00;99.90
5041;DHT22;2539;52.568;13.364;2022-09-03T03:04:38;12.00;99.90
5041;DHT22;2539;52.568;13.364;2022-09-03T03:07:06;11.90;99.90
5041;DHT22;2539;52.568;13.364;2022-09-03T03:09:31;11.90;99.90
5041;DHT22;2539;52.568;13.364;2022-09-03T03:11:57;11.90;99.90
5041;DHT22;2539;52.568;13.364;2022-09-03T03:14:23;11.90;99.90
5041;DHT22;2539;52.568;13.364;2022-09-03T03:16:50;11.90;99.90
5041;DHT22;2539;52.568;13.364;2022-09-03T03:19:16;11.90;99.90
5041;DHT22;2539;52.568;13.364;2022-09-03T03:21:42;11.90;99.90
5041;DHT22;2539;52.568;13.364;2022-09-03T03:24:09;11.90;99.90
5041;DHT22;2539;52.568;13.364;2022-09-03T03:26:36;11.90;99.90
5041;DHT22;2539;52.568;13.364;2022-09-03T03:29:03;11.90;99.90
5041;DHT22;2539;52.568;13.364;2022-09-03T03:31:32;11.90;99.90
5041;DHT22;2539;52.568;13.364;2022-09-03T03:34:00;11.80;99.90
5041;DHT22;2539;52.568;13.364;2022-09-03T03:36:30;11.80;99.90
5041;DHT22;2539;52.568;13.364;2022-09-03T03:38:58;11.80;99.90
5041;DHT22;2539;52.568;13.364;2022-09-03T03:41:32;11.70;99.90
5041;DHT22;2539;52.568;13.364;2022-09-03T03:44:01;11.80;99.90
5041;DHT22;2539;52.568;13.364;2022-09-03T03:46:30;11.80;99.90
5041;DHT22;2539;52.568;13.364;2022-09-03T03:48:57;11.70;99.90
5041;DHT22;2539;52.568;13.364;2022-09-03T03:51:23;11.70;99.90
5041;DHT22;2539;52.568;13.364;2022-09-03T03:53:53;11.80;99.90
5041;DHT22;2539;52.568;13.364;2022-09-03T03:56:20;11.80;99.90
5041;DHT22;2539;52.568;13.364;2022-09-03T03:58:47;11.90;99.90
5041;DHT22;2539;52.568;13.364;2022-09-03T04:01:16;11.90;99.90
5041;DHT22;2539;52.568;13.364;2022-09-03T04:03:43;12.00;99.90
5041;DHT22;2539;52.568;13.364;2022-09-03T04:06:12;12.10;99.90
5041;DHT22;2539;52.568;13.364;2022-09-03T04:08:40;12.10;99.90
5041;DHT22;2539;52.568;13.364;2022-09-03T04:11:08;12.10;99.90
5041;DHT22;2539;52.568;13.364;2022-09-03T04:13:36;12.10;99.90
5041;DHT22;2539;52.568;13.364;2022-09-03T04:16:05;12.10;99.90
5041;DHT22;2539;52.568;13.364;2022-09-03T04:18:32;12.20;99.90
5041;DHT22;2539;52.568;13.364;2022-09-03T04:21:10;12.20;99.90
5041;DHT22;2539;52.568;13.364;2022-09-03T04:23:39;12.20;99.90
5041;DHT22;2539;52.568;13.364;2022-09-03T04:26:07;12.30;99.90
5041;DHT22;2539;52.568;13.364;2022-09-03T04:28:34;12.30;99.90
5041;DHT22;2539;52.568;13.364;2022-09-03T04:31:02;12.30;99.90
5041;DHT22;2539;52.568;13.364;2022-09-03T04:33:29;12.30;99.90
5041;DHT22;2539;52.568;13.364;2022-09-03T04:36:08;12.30;99.90
5041;DHT22;2539;52.568;13.364;2022-09-03T04:38:37;12.40;99.90
5041;DHT22;2539;52.568;13.364;2022-09-03T04:41:05;12.40;99.90
5041;DHT22;2539;52.568;13.364;2022-09-03T04:43:32;12.50;99.90
5041;DHT22;2539;52.568;13.364;2022-09-03T04:46:01;12.50;99.90
5041;DHT22;2539;52.568;13.364;2022-09-03T04:48:29;12.60;99.90
5041;DHT22;2539;52.568;13.364;2022-09-03T04:51:02;12.60;99.90
5041;DHT22;2539;52.568;13.364;2022-09-03T04:53:35;12.60;99.90
5041;DHT22;2539;52.568;13.364;2022-09-03T04:56:03;12.70;99.90
5041;DHT22;2539;52.568;13.364;2022-09-03T04:58:36;12.70;99.90
5041;DHT22;2539;52.568;13.364;2022-09-03T05:01:15;12.70;99.90
5041;DHT22;2539;52.568;13.364;2022-09-03T05:03:41;12.80;99.90
5041;DHT22;2539;52.568;13.364;2022-09-03T05:06:07;12.90;99.90
5041;DHT22;2539;52.568;13.364;2022-09-03T05:08:33;13.00;99.90
5041;DHT22;2539;52.568;13.364;2022-09-03T05:11:06;13.00;99.90
5041;DHT22;2539;52.568;13.364;2022-09-03T05:13:33;13.00;99.90
5041;DHT22;2539;52.568;13.364;2022-09-03T05:16:05;13.10;99.90
5041;DHT22;2539;52.568;13.364;2022-09-03T05:18:31;13.10;99.90
5041;DHT22;2539;52.568;13.364;2022-09-03T05:21:03;13.30;99.90
5041;DHT22;2539;52.568;13.364;2022-09-03T05:23:30;13.30;99.90
5041;DHT22;2539;52.568;13.364;2022-09-03T05:25:59;13.40;99.90
5041;DHT22;2539;52.568;13.364;2022-09-03T05:28:27;13.50;99.90
5041;DHT22;2539;52.568;13.364;2022-09-03T05:31:15;13.40;99.90
5041;DHT22;2539;52.568;13.364;2022-09-03T05:33:44;13.30;99.90
5041;DHT22;2539;52.568;13.364;2022-09-03T05:36:13;13.20;99.90
5041;DHT22;2539;52.568;13.364;2022-09-03T05:38:41;13.10;99.90
5041;DHT22;2539;52.568;13.364;2022-09-03T05:41:10;13.10;99.90
5041;DHT22;2539;52.568;13.364;2022-09-03T05:43:37;13.00;99.90
5041;DHT22;2539;52.568;13.364;2022-09-03T05:46:09;13.10;99.90
5041;DHT22;2539;52.568;13.364;2022-09-03T05:48:37;13.10;99.90
5041;DHT22;2539;52.568;13.364;2022-09-03T05:51:09;13.20;99.90
5041;DHT22;2539;52.568;13.364;2022-09-03T05:53:38;13.30;99.90
5041;DHT22;2539;52.568;13.364;2022-09-03T05:56:07;13.40;99.90
5041;DHT22;2539;52.568;13.364;2022-09-03T05:58:37;13.40;99.90
5041;DHT22;2539;52.568;13.364;2022-09-03T06:01:18;13.40;99.90
5041;DHT22;2539;52.568;13.364;2022-09-03T06:03:47;13.40;99.90
5041;DHT22;2539;52.568;13.364;2022-09-03T06:06:14;13.40;99.90
5041;DHT22;2539;52.568;13.364;2022-09-03T06:08:41;13.40;99.90
5041;DHT22;2539;52.568;13.364;2022-09-03T06:11:10;13.50;99.90
5041;DHT22;2539;52.568;13.364;2022-09-03T06:13:36;13.50;99.90
5041;DHT22;2539;52.568;13.364;2022-09-03T06:16:05;13.60;99.90
5041;DHT22;2539;52.568;13.364;2022-09-03T06:18:31;13.60;99.90
5041;DHT22;2539;52.568;13.364;2022-09-03T06:21:00;13.60;99.90
5041;DHT22;2539;52.568;13.364;2022-09-03T06:23:27;13.70;99.90
5041;DHT22;2539;52.568;13.364;2022-09-03T06:26:11;13.70;99.90
5041;DHT22;2539;52.568;13.364;2022-09-03T06:28:40;13.90;99.90
5041;DHT22;2539;52.568;13.364;2022-09-03T06:31:10;14.00;99.90
5041;DHT22;2539;52.568;13.364;2022-09-03T06:33:37;14.00;99.90
5041;DHT22;2539;52.568;13.364;2022-09-03T06:36:06;14.00;99.90
5041;DHT22;2539;52.568;13.364;2022-09-03T06:38:34;14.10;99.90
5041;DHT22;2539;52.568;13.364;2022-09-03T06:41:06;14.20;99.90
5041;DHT22;2539;52.568;13.364;2022-09-03T06:43:34;14.20;99.90
5041;DHT22;2539;52.568;13.364;2022-09-03T06:46:07;14.30;99.90
5041;DHT22;2539;52.568;13.364;2022-09-03T06:48:34;14.40;99.90
5041;DHT22;2539;52.568;13.364;2022-09-03T06:51:03;14.50;99.90
5041;DHT22;2539;52.568;13.364;2022-09-03T06:53:35;14.60;99.90
5041;DHT22;2539;52.568;13.364;2022-09-03T06:56:03;14.70;99.90
5041;DHT22;2539;52.568;13.364;2022-09-03T06:58:32;14.60;99.90
5041;DHT22;2539;52.568;13.364;2022-09-03T07:01:04;14.50;99.90
5041;DHT22;2539;52.568;13.364;2022-09-03T07:03:35;14.60;99.90
5041;DHT22;2539;52.568;13.364;2022-09-03T07:06:07;14.80;99.90
5041;DHT22;2539;52.568;13.364;2022-09-03T07:08:34;15.00;99.90
5041;DHT22;2539;52.568;13.364;2022-09-03T07:11:06;15.30;99.90
5041;DHT22;2539;52.568;13.364;2022-09-03T07:13:43;15.50;99.90
5041;DHT22;2539;52.568;13.364;2022-09-03T07:16:12;15.70;99.90
5041;DHT22;2539;52.568;13.364;2022-09-03T07:18:39;15.90;99.90
5041;DHT22;2539;52.568;13.364;2022-09-03T07:21:07;16.10;99.90
5041;DHT22;2539;52.568;13.364;2022-09-03T07:23:35;16.30;99.90
5041;DHT22;2539;52.568;13.364;2022-09-03T07:26:08;16.20;99.90
5041;DHT22;2539;52.568;13.364;2022-09-03T07:28:36;16.10;99.90
5041;DHT22;2539;52.568;13.364;2022-09-03T07:33:30;16.00;99.90
5041;DHT22;2539;52.568;13.364;2022-09-03T07:36:05;16.20;99.90
5041;DHT22;2539;52.568;13.364;2022-09-03T07:38:33;16.30;99.90
5041;DHT22;2539;52.568;13.364;2022-09-03T07:41:01;16.60;99.90
5041;DHT22;2539;52.568;13.364;2022-09-03T07:43:31;16.80;99.90
5041;DHT22;2539;52.568;13.364;2022-09-03T07:45:59;17.00;99.90
5041;DHT22;2539;52.568;13.364;2022-09-03T07:48:26;17.30;99.90
5041;DHT22;2539;52.568;13.364;2022-09-03T07:50:57;17.50;99.90
5041;DHT22;2539;52.568;13.364;2022-09-03T07:53:27;17.50;99.90
5041;DHT22;2539;52.568;13.364;2022-09-03T07:55:54;17.40;99.90
5041;DHT22;2539;52.568;13.364;2022-09-03T07:58:28;17.40;99.90
5041;DHT22;2539;52.568;13.364;2022-09-03T08:00:53;17.40;99.90
5041;DHT22;2539;52.568;13.364;2022-09-03T08:03:21;17.50;99.90
5041;DHT22;2539;52.568;13.364;2022-09-03T08:05:47;17.60;99.90
5041;DHT22;2539;52.568;13.364;2022-09-03T08:08:14;17.60;99.90
5041;DHT22;2539;52.568;13.364;2022-09-03T08:10:44;17.60;99.90
5041;DHT22;2539;52.568;13.364;2022-09-03T08:13:10;17.50;99.90
5041;DHT22;2539;52.568;13.364;2022-09-03T08:15:36;17.40;99.90
5041;DHT22;2539;52.568;13.364;2022-09-03T08:18:05;17.40;99.90
5041;DHT22;2539;52.568;13.364;2022-09-03T08:20:31;17.50;99.90
5041;DHT22;2539;52.568;13.364;2022-09-03T08:23:02;17.50;99.90
5041;DHT22;2539;52.568;13.364;2022-09-03T08:25:29;17.50;99.90
5041;DHT22;2539;52.568;13.364;2022-09-03T08:27:58;17.60;99.90
5041;DHT22;2539;52.568;13.364;2022-09-03T08:30:24;17.70;99.90
5041;DHT22;2539;52.568;13.364;2022-09-03T08:32:50;17.80;99.90
5041;DHT22;2539;52.568;13.364;2022-09-03T08:35:16;18.00;99.90
5041;DHT22;2539;52.568;13.364;2022-09-03T08:37:43;18.20;99.90
5041;DHT22;2539;52.568;13.364;2022-09-03T08:40:09;18.30;99.90
5041;DHT22;2539;52.568;13.364;2022-09-03T08:43:10;18.20;99.90
5041;DHT22;2539;52.568;13.364;2022-09-03T08:45:39;17.90;99.90
5041;DHT22;2539;52.568;13.364;2022-09-03T08:48:09;17.80;99.90
5041;DHT22;2539;52.568;13.364;2022-09-03T08:50:42;17.60;99.90
5041;DHT22;2539;52.568;13.364;2022-09-03T08:56:27;17.40;99.90
5041;DHT22;2539;52.568;13.364;2022-09-03T08:58:55;17.30;99.90
5041;DHT22;2539;52.568;13.364;2022-09-03T09:04:31;17.40;99.90
5041;DHT22;2539;52.568;13.364;2022-09-03T09:07:20;17.50;99.90
5041;DHT22;2539;52.568;13.364;2022-09-03T09:10:11;17.50;99.90
5041;DHT22;2539;52.568;13.364;2022-09-03T09:12:57;17.60;99.90
5041;DHT22;2539;52.568;13.364;2022-09-03T09:15:39;17.60;99.90
5041;DHT22;2539;52.568;13.364;2022-09-03T09:21:10;17.70;99.90
5041;DHT22;2539;52.568;13.364;2022-09-03T09:23:43;17.80;99.90
5041;DHT22;2539;52.568;13.364;2022-09-03T09:26:14;17.90;99.90
5041;DHT22;2539;52.568;13.364;2022-09-03T09:28:44;18.00;99.90
5041;DHT22;2539;52.568;13.364;2022-09-03T09:31:14;18.10;99.90
5041;DHT22;2539;52.568;13.364;2022-09-03T09:33:41;18.20;99.90
5041;DHT22;2539;52.568;13.364;2022-09-03T09:36:10;18.30;99.90
5041;DHT22;2539;52.568;13.364;2022-09-03T09:38:38;18.40;99.90
5041;DHT22;2539;52.568;13.364;2022-09-03T09:41:31;18.40;99.90
5041;DHT22;2539;52.568;13.364;2022-09-03T09:44:02;18.60;99.90
5041;DHT22;2539;52.568;13.364;2022-09-03T09:46:38;18.60;99.90
5041;DHT22;2539;52.568;13.364;2022-09-03T09:49:32;18.70;99.90
5041;DHT22;2539;52.568;13.364;2022-09-03T09:52:05;18.80;99.90
5041;DHT22;2539;52.568;13.364;2022-09-03T09:54:33;18.80;99.90
5041;DHT22;2539;52.568;13.364;2022-09-03T09:57:01;18.80;99.90
5041;DHT22;2539;52.568;13.364;2022-09-03T09:59:29;18.90;99.90
5041;DHT22;2539;52.568;13.364;2022-09-03T10:02:22;18.90;99.90
5041;DHT22;2539;52.568;13.364;2022-09-03T10:04:52;19.10;99.90
5041;DHT22;2539;52.568;13.364;2022-09-03T10:07:27;19.10;99.90
5041;DHT22;2539;52.568;13.364;2022-09-03T10:12:41;19.20;99.90
5041;DHT22;2539;52.568;13.364;2022-09-03T10:15:36;19.30;99.90
5041;DHT22;2539;52.568;13.364;2022-09-03T10:21:17;19.50;99.30
5041;DHT22;2539;52.568;13.364;2022-09-03T10:24:12;19.50;99.80
5041;DHT22;2539;52.568;13.364;2022-09-03T10:26:42;19.60;99.20
5041;DHT22;2539;52.568;13.364;2022-09-03T10:29:21;19.70;98.30
5041;DHT22;2539;52.568;13.364;2022-09-03T10:35:19;19.80;97.20
5041;DHT22;2539;52.568;13.364;2022-09-03T10:37:58;19.80;96.90
5041;DHT22;2539;52.568;13.364;2022-09-03T10:43:57;19.90;96.70
5041;DHT22;2539;52.568;13.364;2022-09-03T10:49:21;20.10;96.20
5041;DHT22;2539;52.568;13.364;2022-09-03T10:52:07;20.20;95.30
5041;DHT22;2539;52.568;13.364;2022-09-03T10:54:48;20.20;95.60
5041;DHT22;2539;52.568;13.364;2022-09-03T11:00:09;19.90;95.70
5041;DHT22;2539;52.568;13.364;2022-09-03T11:05:40;20.60;95.10
5041;DHT22;2539;52.568;13.364;2022-09-03T11:08:29;20.90;94.70
5041;DHT22;2539;52.568;13.364;2022-09-03T11:11:12;20.80;94.50
5041;DHT22;2539;52.568;13.364;2022-09-03T11:13:49;20.70;94.80
5041;DHT22;2539;52.568;13.364;2022-09-03T11:16:20;20.80;94.30
5041;DHT22;2539;52.568;13.364;2022-09-03T11:18:52;21.00;94.60
5041;DHT22;2539;52.568;13.364;2022-09-03T11:21:23;21.20;94.20
5041;DHT22;2539;52.568;13.364;2022-09-03T11:24:08;21.30;94.60
5041;DHT22;2539;52.568;13.364;2022-09-03T11:26:37;21.60;93.10
5041;DHT22;2539;52.568;13.364;2022-09-03T11:32:07;21.90;93.30
5041;DHT22;2539;52.568;13.364;2022-09-03T11:34:48;22.20;92.70
5041;DHT22;2539;52.568;13.364;2022-09-03T11:37:27;22.50;91.80
5041;DHT22;2539;52.568;13.364;2022-09-03T11:40:15;22.50;92.20
5041;DHT22;2539;52.568;13.364;2022-09-03T11:42:47;22.40;91.60
5041;DHT22;2539;52.568;13.364;2022-09-03T11:47:51;22.30;90.90
5041;DHT22;2539;52.568;13.364;2022-09-03T11:50:21;22.40;91.00
5041;DHT22;2539;52.568;13.364;2022-09-03T11:52:49;22.40;90.50
5041;DHT22;2539;52.568;13.364;2022-09-03T11:55:28;22.40;91.20
5041;DHT22;2539;52.568;13.364;2022-09-03T11:58:17;22.50;90.40
5041;DHT22;2539;52.568;13.364;2022-09-03T12:00:46;22.30;90.20
5041;DHT22;2539;52.568;13.364;2022-09-03T12:03:14;22.10;90.30
5041;DHT22;2539;52.568;13.364;2022-09-03T12:05:53;21.80;90.70
5041;DHT22;2539;52.568;13.364;2022-09-03T12:08:34;21.70;90.70
5041;DHT22;2539;52.568;13.364;2022-09-03T12:14:36;22.30;90.00
5041;DHT22;2539;52.568;13.364;2022-09-03T12:19:56;22.20;90.30
5041;DHT22;2539;52.568;13.364;2022-09-03T12:22:28;22.20;89.70
5041;DHT22;2539;52.568;13.364;2022-09-03T12:25:09;22.10;90.70
5041;DHT22;2539;52.568;13.364;2022-09-03T12:27:38;22.20;90.00
5041;DHT22;2539;52.568;13.364;2022-09-03T12:30:16;22.00;90.20
5041;DHT22;2539;52.568;13.364;2022-09-03T12:32:44;22.00;90.10
5041;DHT22;2539;52.568;13.364;2022-09-03T12:35:20;21.90;90.60
5041;DHT22;2539;52.568;13.364;2022-09-03T12:37:49;21.90;90.10
5041;DHT22;2539;52.568;13.364;2022-09-03T12:40:19;22.20;89.50
5041;DHT22;2539;52.568;13.364;2022-09-03T12:42:47;22.50;88.60
5041;DHT22;2539;52.568;13.364;2022-09-03T12:45:14;22.70;85.40
5041;DHT22;2539;52.568;13.364;2022-09-03T12:47:43;22.60;84.30
5041;DHT22;2539;52.568;13.364;2022-09-03T12:50:16;22.60;84.20
5041;DHT22;2539;52.568;13.364;2022-09-03T12:52:47;22.60;84.30
5041;DHT22;2539;52.568;13.364;2022-09-03T12:55:37;22.70;83.50
5041;DHT22;2539;52.568;13.364;2022-09-03T12:58:25;22.70;81.80
5041;DHT22;2539;52.568;13.364;2022-09-03T13:03:50;22.50;83.00
5041;DHT22;2539;52.568;13.364;2022-09-03T13:06:28;22.60;82.90
5041;DHT22;2539;52.568;13.364;2022-09-03T13:08:59;22.70;81.60
5041;DHT22;2539;52.568;13.364;2022-09-03T13:11:27;22.90;81.30
5041;DHT22;2539;52.568;13.364;2022-09-03T13:13:59;22.90;81.30
5041;DHT22;2539;52.568;13.364;2022-09-03T13:19:49;22.80;81.00
5041;DHT22;2539;52.568;13.364;2022-09-03T13:22:34;22.50;80.90
5041;DHT22;2539;52.568;13.364;2022-09-03T13:30:12;22.10;83.20
5041;DHT22;2539;52.568;13.364;2022-09-03T13:33:19;22.30;82.60
5041;DHT22;2539;52.568;13.364;2022-09-03T13:36:02;22.60;80.70
5041;DHT22;2539;52.568;13.364;2022-09-03T13:41:37;23.10;78.50
5041;DHT22;2539;52.568;13.364;2022-09-03T13:44:31;23.30;78.40
5041;DHT22;2539;52.568;13.364;2022-09-03T13:47:03;23.40;78.80
5041;DHT22;2539;52.568;13.364;2022-09-03T13:49:41;23.50;79.90
5041;DHT22;2539;52.568;13.364;2022-09-03T13:52:41;23.50;79.20
5041;DHT22;2539;52.568;13.364;2022-09-03T13:58:43;23.10;78.50
5041;DHT22;2539;52.568;13.364;2022-09-03T14:03:51;22.70;79.00
5041;DHT22;2539;52.568;13.364;2022-09-03T14:06:38;22.60;78.90
5041;DHT22;2539;52.568;13.364;2022-09-03T14:12:28;22.80;77.70
5041;DHT22;2539;52.568;13.364;2022-09-03T14:15:17;23.10;77.00
5041;DHT22;2539;52.568;13.364;2022-09-03T14:17:51;23.40;76.50
5041;DHT22;2539;52.568;13.364;2022-09-03T14:23:03;23.20;77.30
5041;DHT22;2539;52.568;13.364;2022-09-03T14:25:30;23.00;77.30
5041;DHT22;2539;52.568;13.364;2022-09-03T14:28:18;23.00;77.70
5041;DHT22;2539;52.568;13.364;2022-09-03T14:34:12;23.20;77.20
5041;DHT22;2539;52.568;13.364;2022-09-03T14:39:59;22.80;76.80
5041;DHT22;2539;52.568;13.364;2022-09-03T14:45:28;22.60;78.00
5041;DHT22;2539;52.568;13.364;2022-09-03T14:51:22;22.40;77.10
5041;DHT22;2539;52.568;13.364;2022-09-03T14:54:01;22.10;77.80
5041;DHT22;2539;52.568;13.364;2022-09-03T14:56:49;22.10;78.20
5041;DHT22;2539;52.568;13.364;2022-09-03T15:02:17;22.50;77.60
5041;DHT22;2539;52.568;13.364;2022-09-03T15:09:58;22.60;76.90
5041;DHT22;2539;52.568;13.364;2022-09-03T15:12:51;22.70;76.40
5041;DHT22;2539;52.568;13.364;2022-09-03T15:18:42;22.30;76.80
5041;DHT22;2539;52.568;13.364;2022-09-03T15:21:35;22.00;78.60
5041;DHT22;2539;52.568;13.364;2022-09-03T15:24:43;21.80;78.80
5041;DHT22;2539;52.568;13.364;2022-09-03T15:30:09;21.70;78.70
5041;DHT22;2539;52.568;13.364;2022-09-03T15:40:21;23.00;77.50
5041;DHT22;2539;52.568;13.364;2022-09-03T15:42:54;23.60;76.60
5041;DHT22;2539;52.568;13.364;2022-09-03T15:45:39;24.10;74.70
5041;DHT22;2539;52.568;13.364;2022-09-03T15:48:21;24.10;74.30
5041;DHT22;2539;52.568;13.364;2022-09-03T15:50:57;24.30;73.20
5041;DHT22;2539;52.568;13.364;2022-09-03T15:59:22;24.30;71.00
5041;DHT22;2539;52.568;13.364;2022-09-03T16:02:07;23.40;72.20
5041;DHT22;2539;52.568;13.364;2022-09-03T16:07:40;23.40;72.40
5041;DHT22;2539;52.568;13.364;2022-09-03T16:10:14;23.00;73.90
5041;DHT22;2539;52.568;13.364;2022-09-03T16:15:27;22.50;75.60
5041;DHT22;2539;52.568;13.364;2022-09-03T16:18:12;22.40;75.60
5041;DHT22;2539;52.568;13.364;2022-09-03T16:20:45;22.40;76.40
5041;DHT22;2539;52.568;13.364;2022-09-03T16:23:24;22.30;75.70
5041;DHT22;2539;52.568;13.364;2022-09-03T16:26:35;22.10;76.50
5041;DHT22;2539;52.568;13.364;2022-09-03T16:29:15;21.80;77.70
5041;DHT22;2539;52.568;13.364;2022-09-03T16:34:28;21.40;78.90
5041;DHT22;2539;52.568;13.364;2022-09-03T16:39:54;21.20;79.10
5041;DHT22;2539;52.568;13.364;2022-09-03T16:45:31;21.10;79.00
5041;DHT22;2539;52.568;13.364;2022-09-03T16:51:06;21.10;79.60
5041;DHT22;2539;52.568;13.364;2022-09-03T16:54:05;21.00;80.10
5041;DHT22;2539;52.568;13.364;2022-09-03T17:02:39;20.60;81.80
5041;DHT22;2539;52.568;13.364;2022-09-03T17:13:49;20.10;83.40
5041;DHT22;2539;52.568;13.364;2022-09-03T17:24:35;19.70;84.90
5041;DHT22;2539;52.568;13.364;2022-09-03T17:35:13;19.40;86.20
5041;DHT22;2539;52.568;13.364;2022-09-03T17:40:30;19.40;87.00
5041;DHT22;2539;52.568;13.364;2022-09-03T17:45:55;19.40;87.40
5041;DHT22;2539;52.568;13.364;2022-09-03T17:48:52;19.30;87.80
5041;DHT22;2539;52.568;13.364;2022-09-03T17:51:50;19.20;87.80
5041;DHT22;2539;52.568;13.364;2022-09-03T17:57:18;19.00;89.20
5041;DHT22;2539;52.568;13.364;2022-09-03T17:59:49;18.90;89.30
5041;DHT22;2539;52.568;13.364;2022-09-03T18:05:24;18.80;89.90
5041;DHT22;2539;52.568;13.364;2022-09-03T18:16:32;18.50;90.70
5041;DHT22;2539;52.568;13.364;2022-09-03T18:19:07;18.40;90.80
5041;DHT22;2539;52.568;13.364;2022-09-03T18:21:43;18.30;91.00
5041;DHT22;2539;52.568;13.364;2022-09-03T18:24:34;18.30;91.40
5041;DHT22;2539;52.568;13.364;2022-09-03T18:27:38;18.20;91.40
5041;DHT22;2539;52.568;13.364;2022-09-03T18:30:24;18.20;91.70
5041;DHT22;2539;52.568;13.364;2022-09-03T18:33:09;18.10;91.90
5041;DHT22;2539;52.568;13.364;2022-09-03T18:35:54;18.10;92.10
5041;DHT22;2539;52.568;13.364;2022-09-03T18:38:41;18.10;92.20
5041;DHT22;2539;52.568;13.364;2022-09-03T18:48:24;18.00;92.70
5041;DHT22;2539;52.568;13.364;2022-09-03T18:57:44;18.10;92.90
5041;DHT22;2539;52.568;13.364;2022-09-03T19:00:35;18.10;92.90
5041;DHT22;2539;52.568;13.364;2022-09-03T19:04:12;18.10;93.00
5041;DHT22;2539;52.568;13.364;2022-09-03T19:07:07;18.10;93.10
5041;DHT22;2539;52.568;13.364;2022-09-03T19:12:58;18.00;93.20
5041;DHT22;2539;52.568;13.364;2022-09-03T19:22:11;17.90;93.40
5041;DHT22;2539;52.568;13.364;2022-09-03T19:25:12;18.00;93.60
5041;DHT22;2539;52.568;13.364;2022-09-03T19:28:14;18.00;93.70
5041;DHT22;2539;52.568;13.364;2022-09-03T19:31:37;18.00;94.00
5041;DHT22;2539;52.568;13.364;2022-09-03T19:34:50;17.90;94.20
5041;DHT22;2539;52.568;13.364;2022-09-03T19:44:46;17.80;94.30
5041;DHT22;2539;52.568;13.364;2022-09-03T19:47:21;17.80;94.60
5041;DHT22;2539;52.568;13.364;2022-09-03T19:50:19;17.70;94.60
5041;DHT22;2539;52.568;13.364;2022-09-03T19:53:07;17.70;94.90
5041;DHT22;2539;52.568;13.364;2022-09-03T19:55:56;17.70;95.20
5041;DHT22;2539;52.568;13.364;2022-09-03T19:58:53;17.70;95.10
5041;DHT22;2539;52.568;13.364;2022-09-03T20:01:39;17.70;95.10
5041;DHT22;2539;52.568;13.364;2022-09-03T20:04:40;17.70;95.20
5041;DHT22;2539;52.568;13.364;2022-09-03T20:07:28;17.80;95.10
5041;DHT22;2539;52.568;13.364;2022-09-03T20:10:15;17.70;95.20
5041;DHT22;2539;52.568;13.364;2022-09-03T20:12:53;17.70;95.10
5041;DHT22;2539;52.568;13.364;2022-09-03T20:15:26;17.70;95.40
5041;DHT22;2539;52.568;13.364;2022-09-03T20:18:16;17.70;95.30
5041;DHT22;2539;52.568;13.364;2022-09-03T20:20:57;17.70;95.40
5041;DHT22;2539;52.568;13.364;2022-09-03T20:23:38;17.70;95.30
5041;DHT22;2539;52.568;13.364;2022-09-03T20:31:30;17.70;95.60
5041;DHT22;2539;52.568;13.364;2022-09-03T20:34:12;17.70;95.70
5041;DHT22;2539;52.568;13.364;2022-09-03T20:43:00;17.60;95.80
5041;DHT22;2539;52.568;13.364;2022-09-03T20:51:11;17.60;95.80